createdAt,value
2018-03-23T00:01:48.448Z,5.80
2018-03-23T00:04:16.049Z,8.20
2018-03-23T00:06:43.619Z,5.50
2018-03-23T00:09:11.738Z,5.67
2018-03-23T00:11:39.828Z,5.00
2018-03-23T00:14:07.428Z,5.07
2018-03-23T00:16:34.987Z,6.07
2018-03-23T00:19:03.331Z,6.87
2018-03-23T00:21:30.920Z,6.33
2018-03-23T00:23:59.113Z,5.67
2018-03-23T00:26:26.720Z,6.97
2018-03-23T00:28:54.260Z,5.93
2018-03-23T00:31:24.243Z,6.37
2018-03-23T00:33:51.819Z,6.33
2018-03-23T00:36:19.836Z,6.13
2018-03-23T00:38:47.438Z,6.10
2018-03-23T00:41:15.004Z,7.43
2018-03-23T00:43:42.591Z,7.60
2018-03-23T00:46:10.150Z,7.50
2018-03-23T00:48:37.901Z,8.20
2018-03-23T00:51:05.468Z,7.20
2018-03-23T00:53:33.059Z,7.97
2018-03-23T00:56:01.007Z,7.93
2018-03-23T00:58:28.548Z,10.80
2018-03-23T01:00:56.120Z,7.83
2018-03-23T01:03:23.712Z,7.60
2018-03-23T01:05:51.238Z,8.00
2018-03-23T01:08:19.333Z,7.60
2018-03-23T01:10:47.298Z,6.90
2018-03-23T01:13:15.463Z,9.63
2018-03-23T01:15:43.904Z,9.30
2018-03-23T01:18:13.403Z,8.57
2018-03-23T01:20:40.940Z,9.87
2018-03-23T01:23:08.820Z,10.27
2018-03-23T01:25:37.153Z,9.43
2018-03-23T01:28:04.704Z,12.00
2018-03-23T01:30:32.301Z,10.63
2018-03-23T01:32:59.832Z,12.10
2018-03-23T01:35:28.219Z,12.60
2018-03-23T01:37:55.800Z,11.90
2018-03-23T01:40:23.384Z,9.70
2018-03-23T01:42:50.967Z,9.67
2018-03-23T01:45:18.552Z,10.67
2018-03-23T01:47:47.057Z,10.33
2018-03-23T01:50:14.643Z,10.53
2018-03-23T01:52:42.190Z,12.10
2018-03-23T01:55:09.736Z,12.53
2018-03-23T01:57:37.323Z,14.57
2018-03-23T02:00:04.952Z,15.67
2018-03-23T02:02:32.495Z,14.13
2018-03-23T02:05:00.034Z,13.43
2018-03-23T02:07:27.625Z,14.27
2018-03-23T02:09:55.952Z,11.87
2018-03-23T02:12:23.496Z,10.00
2018-03-23T02:14:51.082Z,11.10
2018-03-23T02:17:18.939Z,9.87
2018-03-23T02:19:46.877Z,9.70
2018-03-23T02:22:15.091Z,7.77
2018-03-23T02:24:43.663Z,10.63
2018-03-23T02:27:11.199Z,8.50
2018-03-23T02:29:38.756Z,9.07
2018-03-23T02:32:06.365Z,10.53
2018-03-23T02:34:33.903Z,8.40
2018-03-23T02:37:01.725Z,9.53
2018-03-23T02:39:29.273Z,8.97
2018-03-23T02:41:56.813Z,10.13
2018-03-23T02:44:25.020Z,9.40
2018-03-23T02:46:52.557Z,8.20
2018-03-23T02:49:20.101Z,7.67
2018-03-23T02:51:47.676Z,9.53
2018-03-23T02:54:15.266Z,8.10
2018-03-23T02:56:42.800Z,9.60
2018-03-23T02:59:10.392Z,9.20
2018-03-23T03:01:38.562Z,11.20
2018-03-23T03:04:06.169Z,10.60
2018-03-23T03:06:33.718Z,8.93
2018-03-23T03:09:01.311Z,9.20
2018-03-23T03:11:28.903Z,11.43
2018-03-23T03:13:56.874Z,12.10
2018-03-23T03:16:24.831Z,11.03
2018-03-23T03:18:52.781Z,10.90
2018-03-23T03:21:20.363Z,11.40
2018-03-23T03:23:47.907Z,10.27
2018-03-23T03:26:15.731Z,9.50
2018-03-23T03:28:43.319Z,9.43
2018-03-23T03:31:11.055Z,8.90
2018-03-23T03:33:38.640Z,7.70
2018-03-23T03:36:07.067Z,8.53
2018-03-23T03:38:34.662Z,8.10
2018-03-23T03:41:02.243Z,8.73
2018-03-23T03:43:29.838Z,10.60
2018-03-23T03:45:57.707Z,16.13
2018-03-23T03:48:25.252Z,27.30
2018-03-23T03:50:52.996Z,32.43
2018-03-23T03:53:20.604Z,31.97
2018-03-23T03:55:48.154Z,28.13
2018-03-23T03:58:15.763Z,25.37
2018-03-23T04:00:43.317Z,18.40
2018-03-23T04:03:10.876Z,17.50
2018-03-23T04:05:38.471Z,13.50
2018-03-23T04:08:06.702Z,14.33
2018-03-23T04:10:34.641Z,11.57
2018-03-23T04:13:02.194Z,18.43
2018-03-23T04:15:31.659Z,17.60
2018-03-23T04:17:59.240Z,16.20
2018-03-23T04:20:26.840Z,13.20
2018-03-23T04:22:54.429Z,15.80
2018-03-23T04:25:22.023Z,14.40
2018-03-23T04:27:49.985Z,13.93
2018-03-23T04:30:17.596Z,16.07
2018-03-23T04:32:45.136Z,10.90
2018-03-23T04:35:13.296Z,12.43
2018-03-23T04:37:41.155Z,13.87
2018-03-23T04:40:08.735Z,13.60
2018-03-23T04:42:36.790Z,12.93
2018-03-23T04:45:04.393Z,10.27
2018-03-23T04:47:31.967Z,14.03
2018-03-23T04:49:59.578Z,11.37
2018-03-23T04:52:27.135Z,19.30
2018-03-23T04:54:54.727Z,28.37
2018-03-23T04:57:22.276Z,36.40
2018-03-23T04:59:49.863Z,34.43
2018-03-23T05:02:18.246Z,37.27
2018-03-23T05:04:45.789Z,38.20
2018-03-23T05:07:13.331Z,45.93
2018-03-23T05:09:40.911Z,36.27
2018-03-23T05:12:09.400Z,33.30
2018-03-23T05:14:37.000Z,31.20
2018-03-23T05:17:04.543Z,30.70
2018-03-23T05:19:33.043Z,21.90
2018-03-23T05:22:00.647Z,23.30
2018-03-23T05:24:28.188Z,27.67
2018-03-23T05:26:58.434Z,25.60
2018-03-23T05:29:26.036Z,21.00
2018-03-23T05:31:53.636Z,17.17
2018-03-23T05:34:21.175Z,14.90
2018-03-23T05:36:48.739Z,20.87
2018-03-23T05:39:16.542Z,13.10
2018-03-23T05:41:44.083Z,12.27
2018-03-23T05:44:11.769Z,16.00
2018-03-23T05:46:40.134Z,14.15
2018-03-23T05:49:07.779Z,15.70
2018-03-23T05:51:35.368Z,15.53
2018-03-23T05:54:03.164Z,14.48
2018-03-23T05:56:31.075Z,14.73
2018-03-23T05:58:59.524Z,14.17
2018-03-23T06:01:27.703Z,15.90
2018-03-23T06:03:55.301Z,16.37
2018-03-23T06:06:22.873Z,13.95
2018-03-23T06:08:50.472Z,13.47
2018-03-23T06:11:18.385Z,16.02
2018-03-23T06:13:46.493Z,20.40
2018-03-23T06:16:14.068Z,17.58
2018-03-23T06:18:41.654Z,21.15
2018-03-23T06:21:09.747Z,18.03
2018-03-23T06:23:38.545Z,20.37
2018-03-23T06:26:06.226Z,17.62
2018-03-23T06:28:34.124Z,15.67
2018-03-23T06:31:01.724Z,15.40
2018-03-23T06:33:29.294Z,17.73
2018-03-23T06:35:59.492Z,16.20
2018-03-23T06:38:31.514Z,13.03
2018-03-23T06:40:59.938Z,16.80
2018-03-23T06:43:28.408Z,12.20
2018-03-23T06:45:56.290Z,12.48
2018-03-23T06:48:25.857Z,10.07
2018-03-23T06:50:54.255Z,12.43
2018-03-23T06:53:22.972Z,9.90
2018-03-23T06:55:56.530Z,11.33
2018-03-23T06:58:24.337Z,9.80
2018-03-23T07:00:52.087Z,7.20
2018-03-23T07:03:19.653Z,8.95
2018-03-23T07:05:47.494Z,7.03
2018-03-23T07:08:16.077Z,7.73
2018-03-23T07:10:43.735Z,9.80
2018-03-23T07:13:11.755Z,7.17
2018-03-23T07:15:40.285Z,11.25
2018-03-23T07:18:08.664Z,9.27
2018-03-23T07:20:36.267Z,9.48
2018-03-23T07:23:04.926Z,10.02
2018-03-23T07:25:33.052Z,13.90
2018-03-23T07:28:00.976Z,13.60
2018-03-23T07:30:29.251Z,12.43
2018-03-23T07:32:56.857Z,13.52
2018-03-23T07:35:25.768Z,11.95
2018-03-23T07:37:53.783Z,16.43
2018-03-23T07:40:21.396Z,12.83
2018-03-23T07:42:48.993Z,9.65
2018-03-23T07:45:16.760Z,10.60
2018-03-23T07:47:44.370Z,11.65
2018-03-23T07:50:11.925Z,17.12
2018-03-23T07:52:39.464Z,17.30
2018-03-23T07:55:07.056Z,10.88
2018-03-23T07:57:34.977Z,18.83
2018-03-23T08:00:02.686Z,10.63
2018-03-23T08:02:30.428Z,14.73
2018-03-23T08:04:59.656Z,37.67
2018-03-23T08:07:28.160Z,20.87
2018-03-23T08:09:56.241Z,27.33
2018-03-23T08:12:24.310Z,15.47
2018-03-23T08:14:52.177Z,30.52
2018-03-23T08:17:19.756Z,9.90
2018-03-23T08:19:48.887Z,9.70
2018-03-23T08:22:16.480Z,17.02
2018-03-23T08:24:44.993Z,14.07
2018-03-23T08:27:13.433Z,12.35
2018-03-23T08:29:41.694Z,12.53
2018-03-23T08:32:09.277Z,10.48
2018-03-23T08:34:37.220Z,16.25
2018-03-23T08:37:05.022Z,11.05
2018-03-23T08:39:32.564Z,8.93
2018-03-23T08:42:00.575Z,8.68
2018-03-23T08:44:28.596Z,8.88
2018-03-23T08:46:56.162Z,10.30
2018-03-23T08:49:24.566Z,9.50
2018-03-23T08:51:54.732Z,8.47
2018-03-23T08:54:22.562Z,9.13
2018-03-23T08:56:50.124Z,10.43
2018-03-23T08:59:18.386Z,9.73
2018-03-23T09:01:46.211Z,10.17
2018-03-23T09:04:14.417Z,11.10
2018-03-23T09:06:42.012Z,8.13
2018-03-23T09:09:09.659Z,9.13
2018-03-23T09:11:37.277Z,8.73
2018-03-23T09:14:04.833Z,8.20
2018-03-23T09:16:32.391Z,7.80
2018-03-23T09:18:59.975Z,7.80
2018-03-23T09:21:27.842Z,8.80
2018-03-23T09:23:56.274Z,8.93
2018-03-23T09:26:23.857Z,6.30
2018-03-23T09:28:51.414Z,9.87
2018-03-23T09:31:19.016Z,7.43
2018-03-23T09:33:46.964Z,6.80
2018-03-23T09:36:15.537Z,6.87
2018-03-23T09:38:43.133Z,5.53
2018-03-23T09:41:10.929Z,6.80
2018-03-23T09:43:38.948Z,6.77
2018-03-23T09:46:07.513Z,6.37
2018-03-23T09:48:35.074Z,6.93
2018-03-23T09:51:02.677Z,6.83
2018-03-23T09:53:30.288Z,7.55
2018-03-23T09:55:58.706Z,8.23
2018-03-23T09:58:26.309Z,22.07
2018-03-23T10:00:54.025Z,15.40
2018-03-23T10:03:21.620Z,13.30
2018-03-23T10:05:49.191Z,22.30
2018-03-23T10:08:17.763Z,20.70
2018-03-23T10:10:45.354Z,9.73
2018-03-23T10:13:13.017Z,11.40
2018-03-23T10:15:40.784Z,11.50
2018-03-23T10:18:08.378Z,8.90
2018-03-23T10:20:37.613Z,10.47
2018-03-23T10:23:05.159Z,11.23
2018-03-23T10:25:33.078Z,8.77
2018-03-23T10:28:00.681Z,8.63
2018-03-23T10:30:28.222Z,7.03
2018-03-23T10:32:55.825Z,10.57
2018-03-23T10:35:23.414Z,4.47
2018-03-23T10:37:50.997Z,10.20
2018-03-23T10:40:18.539Z,6.07
2018-03-23T10:42:46.142Z,9.02
2018-03-23T10:45:13.697Z,8.30
2018-03-23T10:47:41.384Z,13.50
2018-03-23T10:50:08.940Z,11.30
2018-03-23T10:52:36.535Z,6.93
2018-03-23T10:55:05.320Z,12.87
2018-03-23T10:57:32.912Z,9.02
2018-03-23T11:00:00.556Z,8.00
2018-03-23T11:02:42.600Z,6.60
2018-03-23T11:05:10.214Z,9.45
2018-03-23T11:07:37.776Z,26.50
2018-03-23T11:10:05.352Z,8.50
2018-03-23T11:12:32.955Z,6.73
2018-03-23T11:15:02.204Z,8.10
2018-03-23T11:17:30.243Z,6.80
2018-03-23T11:19:58.122Z,10.17
2018-03-23T11:22:25.697Z,6.35
2018-03-23T11:24:54.227Z,4.97
2018-03-23T11:27:21.824Z,5.43
2018-03-23T11:29:50.182Z,5.33
2018-03-23T11:32:17.772Z,5.45
2018-03-23T11:34:45.346Z,6.97
2018-03-23T11:37:12.948Z,6.25
2018-03-23T11:39:40.536Z,7.47
2018-03-23T11:42:08.557Z,5.23
2018-03-23T11:44:38.425Z,6.68
2018-03-23T11:47:06.048Z,6.45
2018-03-23T11:49:33.737Z,6.03
2018-03-23T11:52:01.357Z,6.45
2018-03-23T11:54:28.969Z,6.30
2018-03-23T11:56:56.511Z,6.53
2018-03-23T11:59:24.077Z,4.70
2018-03-23T12:01:51.682Z,5.80
2018-03-23T12:04:20.172Z,5.00
2018-03-23T12:06:47.764Z,6.17
2018-03-23T12:09:15.320Z,5.10
2018-03-23T12:11:42.947Z,6.07
2018-03-23T12:14:10.506Z,4.67
2018-03-23T12:16:38.113Z,4.77
2018-03-23T12:19:05.660Z,6.27
2018-03-23T12:21:33.373Z,5.20
2018-03-23T12:24:00.908Z,4.87
2018-03-23T12:26:28.547Z,5.27
2018-03-23T12:28:56.948Z,5.53
2018-03-23T12:31:25.330Z,5.73
2018-03-23T12:33:53.799Z,5.93
2018-03-23T12:36:21.417Z,5.90
2018-03-23T12:38:50.122Z,5.17
2018-03-23T12:41:17.708Z,5.83
2018-03-23T12:43:45.255Z,6.03
2018-03-23T12:46:12.847Z,5.17
2018-03-23T12:48:40.469Z,12.43
2018-03-23T12:51:08.715Z,7.77
2018-03-23T12:53:36.941Z,6.67
2018-03-23T12:56:05.960Z,7.60
2018-03-23T12:58:35.031Z,7.67
2018-03-23T13:01:03.454Z,5.80
2018-03-23T13:03:31.213Z,6.57
2018-03-23T13:05:58.811Z,7.10
2018-03-23T13:08:26.358Z,5.73
2018-03-23T13:10:53.954Z,4.80
2018-03-23T13:13:21.855Z,8.27
2018-03-23T13:15:49.484Z,7.97
2018-03-23T13:18:18.953Z,6.77
2018-03-23T13:20:47.298Z,7.33
2018-03-23T13:23:14.844Z,6.90
2018-03-23T13:25:43.234Z,7.85
2018-03-23T13:28:10.800Z,9.25
2018-03-23T13:30:38.361Z,9.67
2018-03-23T13:33:05.963Z,7.07
2018-03-23T13:35:34.258Z,10.07
2018-03-23T13:38:01.986Z,6.20
2018-03-23T13:40:30.341Z,7.43
2018-03-23T13:42:59.687Z,7.62
2018-03-23T13:45:27.296Z,7.63
2018-03-23T13:47:55.351Z,7.77
2018-03-23T13:50:23.028Z,7.10
2018-03-23T13:52:50.599Z,8.02
2018-03-23T13:55:18.206Z,8.13
2018-03-23T13:57:45.972Z,6.87
2018-03-23T14:00:18.982Z,8.27
2018-03-23T14:02:46.674Z,7.83
2018-03-23T14:05:14.786Z,8.88
2018-03-23T14:07:42.580Z,10.63
2018-03-23T14:10:10.609Z,7.63
2018-03-23T14:12:38.697Z,14.10
2018-03-23T14:15:06.483Z,9.37
2018-03-23T14:17:34.353Z,11.60
2018-03-23T14:20:02.018Z,9.10
2018-03-23T14:22:30.941Z,8.73
2018-03-23T14:24:58.720Z,8.00
2018-03-23T14:27:26.583Z,10.60
2018-03-23T14:29:54.862Z,10.57
2018-03-23T14:32:23.285Z,11.17
2018-03-23T14:34:51.054Z,9.53
2018-03-23T14:37:19.684Z,10.63
2018-03-23T14:39:48.314Z,9.63
2018-03-23T14:42:16.137Z,14.97
2018-03-23T14:44:44.536Z,13.73
2018-03-23T14:47:12.287Z,11.30
2018-03-23T14:49:39.885Z,12.43
2018-03-23T14:52:08.241Z,9.97
2018-03-23T14:54:36.192Z,11.70
2018-03-23T14:57:04.903Z,13.93
2018-03-23T14:59:35.154Z,17.87
2018-03-23T15:02:03.072Z,17.00
2018-03-23T15:04:32.154Z,15.87
2018-03-23T15:07:00.821Z,23.00
2018-03-23T15:09:29.355Z,30.10
2018-03-23T15:11:57.914Z,19.13
2018-03-23T15:14:32.576Z,22.87
2018-03-23T15:17:00.804Z,20.83
2018-03-23T15:19:29.186Z,16.73
2018-03-23T15:21:58.185Z,14.63
2018-03-23T15:24:26.395Z,19.27
2018-03-23T15:26:55.887Z,14.47
2018-03-23T15:29:24.237Z,13.93
2018-03-23T15:31:52.112Z,17.30
2018-03-23T15:34:19.945Z,12.07
2018-03-23T15:36:48.514Z,18.97
2018-03-23T15:39:16.069Z,18.70
2018-03-23T15:41:43.674Z,15.87
2018-03-23T15:44:12.052Z,21.33
2018-03-23T15:46:40.246Z,15.57
2018-03-23T15:49:08.294Z,19.20
2018-03-23T15:51:36.321Z,15.17
2018-03-23T15:54:04.541Z,12.27
2018-03-23T15:56:32.713Z,17.90
2018-03-23T15:59:00.962Z,15.33
2018-03-23T16:01:28.932Z,19.23
2018-03-23T16:03:57.240Z,19.33
2018-03-23T16:06:25.127Z,16.77
2018-03-23T16:08:53.881Z,14.53
2018-03-23T16:11:21.768Z,19.83
2018-03-23T16:13:50.084Z,21.17
2018-03-23T16:16:18.066Z,26.53
2018-03-23T16:18:46.047Z,27.87
2018-03-23T16:21:14.993Z,18.63
2018-03-23T16:23:43.285Z,23.37
2018-03-23T16:26:12.577Z,18.37
2018-03-23T16:28:42.891Z,21.00
2018-03-23T16:31:11.193Z,19.50
2018-03-23T16:33:39.930Z,20.63
2018-03-23T16:36:10.159Z,23.60
2018-03-23T16:38:38.541Z,23.67
2018-03-23T16:41:07.323Z,19.67
2018-03-23T16:43:35.606Z,24.20
2018-03-23T16:46:05.230Z,21.43
2018-03-23T16:48:33.922Z,23.50
2018-03-23T16:51:03.811Z,20.10
2018-03-23T16:53:32.503Z,21.23
2018-03-23T16:56:01.187Z,21.47
2018-03-23T16:58:30.491Z,19.57
2018-03-23T17:00:59.812Z,19.80
2018-03-23T17:03:28.639Z,22.27
2018-03-23T17:05:57.814Z,25.03
2018-03-23T17:08:26.595Z,21.80
2018-03-23T17:10:55.476Z,26.33
2018-03-23T17:13:24.404Z,25.03
2018-03-23T17:15:53.434Z,27.37
2018-03-23T17:18:22.733Z,23.90
2018-03-23T17:20:52.949Z,25.90
2018-03-23T17:23:21.591Z,24.20
2018-03-23T17:25:51.248Z,24.50
2018-03-23T17:28:22.263Z,23.90
2018-03-23T17:30:50.807Z,21.73
2018-03-23T17:33:20.929Z,23.60
2018-03-23T17:35:49.183Z,20.40
2018-03-23T17:38:20.787Z,20.33
2018-03-23T17:40:50.372Z,23.53
2018-03-23T17:43:19.429Z,23.77
2018-03-23T17:45:48.104Z,24.23
2018-03-23T17:48:17.405Z,21.33
2018-03-23T17:50:47.555Z,24.13
2018-03-23T17:53:16.549Z,24.23
2018-03-23T17:55:45.333Z,21.53
2018-03-23T17:58:14.293Z,21.10
2018-03-23T18:00:43.268Z,21.13
2018-03-23T18:03:11.604Z,27.20
2018-03-23T18:05:40.466Z,25.07
2018-03-23T18:08:11.496Z,24.07
2018-03-23T18:10:40.280Z,23.20
2018-03-23T18:13:09.481Z,20.87
2018-03-23T18:15:38.530Z,25.53
2018-03-23T18:18:07.177Z,22.37
2018-03-23T18:20:35.540Z,23.10
2018-03-23T18:23:04.238Z,22.93
2018-03-23T18:25:32.640Z,22.80
2018-03-23T18:28:02.217Z,22.40
2018-03-23T18:30:31.316Z,25.27
2018-03-23T18:33:01.507Z,23.57
2018-03-23T18:35:34.434Z,26.40
2018-03-23T18:38:03.091Z,28.27
2018-03-23T18:40:32.949Z,22.73
2018-03-23T18:43:02.212Z,25.30
2018-03-23T18:45:30.992Z,22.47
2018-03-23T18:47:59.676Z,28.27
2018-03-23T18:50:29.283Z,30.60
2018-03-23T18:52:58.901Z,28.60
2018-03-23T18:55:29.119Z,40.17
2018-03-23T18:57:58.359Z,34.10
2018-03-23T19:00:26.718Z,36.57
2018-03-23T19:02:55.101Z,37.10
2018-03-23T19:05:23.916Z,34.93
2018-03-23T19:07:52.288Z,42.40
2018-03-23T19:10:21.009Z,41.33
2018-03-23T19:12:51.139Z,37.63
2018-03-23T19:15:20.080Z,35.83
2018-03-23T19:17:49.739Z,34.10
2018-03-23T19:20:19.652Z,36.77
2018-03-23T19:22:49.258Z,35.10
2018-03-23T19:25:18.279Z,38.33
2018-03-23T19:27:47.179Z,39.03
2018-03-23T19:30:16.220Z,36.17
2018-03-23T19:32:44.927Z,37.30
2018-03-23T19:35:14.414Z,35.13
2018-03-23T19:37:43.527Z,33.93
2018-03-23T19:40:13.134Z,33.10
2018-03-23T19:42:42.735Z,36.70
2018-03-23T19:45:13.317Z,32.67
2018-03-23T19:47:41.452Z,35.37
2018-03-23T19:50:10.328Z,32.03
2018-03-23T19:52:39.028Z,32.33
2018-03-23T19:55:08.245Z,32.93
2018-03-23T19:57:37.314Z,31.63
2018-03-23T20:00:06.912Z,45.43
2018-03-23T20:02:35.903Z,27.30
2018-03-23T20:05:05.203Z,36.43
2018-03-23T20:07:34.198Z,31.43
2018-03-23T20:10:03.816Z,30.33
2018-03-23T20:12:32.912Z,28.40
2018-03-23T20:15:01.637Z,27.73
2018-03-23T20:17:36.899Z,28.83
2018-03-23T20:20:12.621Z,28.30
2018-03-23T20:22:41.996Z,24.63
2018-03-23T20:25:10.659Z,26.83
2018-03-23T20:27:48.156Z,21.60
2018-03-23T20:30:17.242Z,25.27
2018-03-23T20:32:46.067Z,22.77
2018-03-23T20:35:15.550Z,18.93
2018-03-23T20:37:45.140Z,19.20
2018-03-23T20:40:14.772Z,21.43
2018-03-23T20:42:43.739Z,18.63
2018-03-23T20:45:12.535Z,19.13
2018-03-23T20:47:41.728Z,21.17
2018-03-23T20:50:10.412Z,16.60
2018-03-23T20:52:39.064Z,21.23
2018-03-23T20:55:07.407Z,19.27
2018-03-23T20:57:36.674Z,16.97
2018-03-23T21:00:05.156Z,21.10
2018-03-23T21:02:35.081Z,21.17
2018-03-23T21:05:03.755Z,20.57
2018-03-23T21:07:32.804Z,23.07
2018-03-23T21:10:01.414Z,34.40
2018-03-23T21:12:30.134Z,44.50
2018-03-23T21:14:59.168Z,27.80
2018-03-23T21:17:28.728Z,26.13
2018-03-23T21:19:57.193Z,24.90
2018-03-23T21:22:25.554Z,20.23
2018-03-23T21:24:53.850Z,25.73
2018-03-23T21:27:22.045Z,23.00
2018-03-23T21:29:50.402Z,29.13
2018-03-23T21:32:18.983Z,22.73
2018-03-23T21:34:47.361Z,22.03
2018-03-23T21:37:17.099Z,22.27
2018-03-23T21:39:45.352Z,15.97
2018-03-23T21:42:14.643Z,16.17
2018-03-23T21:44:43.026Z,18.37
2018-03-23T21:47:11.229Z,18.17
2018-03-23T21:49:39.204Z,20.90
2018-03-23T21:52:07.456Z,16.10
2018-03-23T21:54:35.582Z,16.73
2018-03-23T21:57:03.430Z,18.43
2018-03-23T21:59:31.031Z,17.10
2018-03-23T22:01:58.847Z,16.73
2018-03-23T22:04:26.407Z,18.67
2018-03-23T22:06:54.007Z,17.83
2018-03-23T22:09:21.616Z,16.83
2018-03-23T22:11:49.184Z,15.87
2018-03-23T22:14:16.825Z,15.37
2018-03-23T22:16:44.368Z,12.87
2018-03-23T22:19:11.914Z,17.37
2018-03-23T22:21:39.521Z,16.03
2018-03-23T22:24:07.365Z,15.47
2018-03-23T22:26:35.732Z,15.23
2018-03-23T22:29:03.326Z,13.20
2018-03-23T22:31:31.601Z,12.27
2018-03-23T22:33:59.503Z,13.07
2018-03-23T22:36:27.227Z,11.87
2018-03-23T22:38:54.813Z,13.97
2018-03-23T22:41:22.368Z,15.50
2018-03-23T22:43:49.965Z,14.47
2018-03-23T22:46:17.519Z,14.50
2018-03-23T22:48:45.120Z,13.73
2018-03-23T22:51:12.680Z,20.33
2018-03-23T22:53:40.240Z,14.97
2018-03-23T22:56:07.841Z,16.17
2018-03-23T22:58:36.213Z,15.27
2018-03-23T23:01:03.807Z,14.90
2018-03-23T23:03:31.411Z,12.13
2018-03-23T23:05:58.965Z,13.77
2018-03-23T23:08:26.747Z,16.17
2018-03-23T23:10:54.344Z,14.33
2018-03-23T23:13:21.895Z,18.07
2018-03-23T23:15:49.485Z,14.80
2018-03-23T23:18:17.939Z,15.10
2018-03-23T23:20:45.816Z,16.03
2018-03-23T23:23:14.600Z,17.33
2018-03-23T23:25:42.196Z,16.40
2018-03-23T23:28:09.796Z,16.03
2018-03-23T23:30:37.396Z,13.93
2018-03-23T23:33:05.218Z,16.67
2018-03-23T23:35:33.288Z,16.00
2018-03-23T23:38:00.844Z,15.27
2018-03-23T23:40:28.450Z,15.27
2018-03-23T23:42:56.010Z,15.87
2018-03-23T23:45:23.572Z,16.67
2018-03-23T23:47:51.175Z,16.43
2018-03-23T23:50:19.058Z,15.93
2018-03-23T23:52:46.641Z,15.23
2018-03-23T23:55:14.657Z,15.20
2018-03-23T23:57:42.377Z,17.93
